createdAt,value
2019-04-16T00:01:53.741Z,14.30
2019-04-16T00:03:56.793Z,13.28
2019-04-16T00:06:02.670Z,14.33
2019-04-16T00:08:27.365Z,13.83
2019-04-16T00:10:39.163Z,16.30
2019-04-16T00:12:59.171Z,15.32
2019-04-16T00:15:01.397Z,15.23
2019-04-16T00:17:02.737Z,15.30
2019-04-16T00:19:06.352Z,12.93
2019-04-16T00:21:14.641Z,12.18
2019-04-16T00:23:20.224Z,13.15
2019-04-16T00:25:21.633Z,15.58
2019-04-16T00:27:22.781Z,12.60
2019-04-16T00:29:24.317Z,13.00
2019-04-16T00:31:25.518Z,14.70
2019-04-16T00:33:26.652Z,13.10
2019-04-16T00:35:27.829Z,16.87
2019-04-16T00:37:28.969Z,13.78
2019-04-16T00:39:30.118Z,15.75
2019-04-16T00:41:31.274Z,14.00
2019-04-16T00:43:32.411Z,15.15
2019-04-16T00:45:33.567Z,17.27
2019-04-16T00:47:34.700Z,16.48
2019-04-16T00:49:37.905Z,14.55
2019-04-16T00:51:39.321Z,13.18
2019-04-16T00:53:40.445Z,15.35
2019-04-16T00:55:42.325Z,14.00
2019-04-16T00:57:48.433Z,16.95
2019-04-16T00:59:47.686Z,17.95
2019-04-16T01:01:48.912Z,15.55
2019-04-16T01:03:50.121Z,14.47
2019-04-16T01:05:51.288Z,14.10
2019-04-16T01:07:52.724Z,15.60
2019-04-16T01:09:53.988Z,12.85
2019-04-16T01:11:55.125Z,12.33
2019-04-16T01:13:56.339Z,20.50
2019-04-16T01:16:02.679Z,14.33
2019-04-16T01:18:00.964Z,15.43
2019-04-16T01:20:05.406Z,14.35
2019-04-16T01:22:06.949Z,16.15
2019-04-16T01:24:08.089Z,13.22
2019-04-16T01:26:09.501Z,13.88
2019-04-16T01:28:29.448Z,13.75
2019-04-16T01:30:36.618Z,13.32
2019-04-16T01:32:45.625Z,13.35
2019-04-16T01:34:48.750Z,13.38
2019-04-16T01:37:08.705Z,16.12
2019-04-16T01:39:17.804Z,13.05
2019-04-16T01:41:21.683Z,13.75
2019-04-16T01:43:20.185Z,13.38
2019-04-16T01:45:21.330Z,14.95
2019-04-16T01:47:22.790Z,10.68
2019-04-16T01:49:23.934Z,15.60
2019-04-16T01:51:25.085Z,13.83
2019-04-16T01:53:26.234Z,13.85
2019-04-16T01:55:27.386Z,8.68
2019-04-16T01:57:30.742Z,10.65
2019-04-16T01:59:35.629Z,12.00
2019-04-16T02:01:34.657Z,14.65
2019-04-16T02:03:36.463Z,12.53
2019-04-16T02:05:37.851Z,18.02
2019-04-16T02:07:39.008Z,14.63
2019-04-16T02:09:40.461Z,10.00
2019-04-16T02:11:42.174Z,13.45
2019-04-16T02:13:46.266Z,12.98
2019-04-16T02:15:46.902Z,15.78
2019-04-16T02:17:48.069Z,11.10
2019-04-16T02:19:49.298Z,15.78
2019-04-16T02:21:50.453Z,12.13
2019-04-16T02:23:51.684Z,17.50
2019-04-16T02:25:53.245Z,14.55
2019-04-16T02:27:56.985Z,13.48
2019-04-16T02:29:58.606Z,12.05
2019-04-16T02:32:01.880Z,10.18
2019-04-16T02:34:03.220Z,12.80
2019-04-16T02:36:04.493Z,11.45
2019-04-16T02:38:11.139Z,15.60
2019-04-16T02:40:17.057Z,12.95
2019-04-16T02:42:13.130Z,13.85
2019-04-16T02:46:17.279Z,11.60
2019-04-16T02:48:18.441Z,12.73
2019-04-16T02:50:21.504Z,11.53
2019-04-16T02:52:24.554Z,11.60
2019-04-16T02:54:36.208Z,14.13
2019-04-16T02:56:57.398Z,14.60
2019-04-16T02:59:13.595Z,12.07
2019-04-16T03:01:20.869Z,13.35
2019-04-16T03:03:27.262Z,13.43
2019-04-16T03:05:30.670Z,17.57
2019-04-16T03:07:32.783Z,13.05
2019-04-16T03:09:34.578Z,13.70
2019-04-16T03:11:35.835Z,9.35
2019-04-16T03:13:37.382Z,13.48
2019-04-16T03:17:47.748Z,10.68
2019-04-16T03:19:53.955Z,14.10
2019-04-16T03:21:55.767Z,10.58
2019-04-16T03:23:57.109Z,12.47
2019-04-16T03:25:58.581Z,12.80
2019-04-16T03:27:59.950Z,10.18
2019-04-16T03:30:03.485Z,10.78
2019-04-16T03:32:04.907Z,12.78
2019-04-16T03:34:06.495Z,13.72
2019-04-16T03:38:08.826Z,11.45
2019-04-16T03:40:17.140Z,11.68
2019-04-16T03:42:13.285Z,11.40
2019-04-16T03:44:14.417Z,12.37
2019-04-16T03:46:15.815Z,12.43
2019-04-16T03:48:17.025Z,13.85
2019-04-16T03:50:18.186Z,10.20
2019-04-16T03:52:19.409Z,11.05
2019-04-16T03:54:22.430Z,8.38
2019-04-16T03:56:23.605Z,10.65
2019-04-16T03:58:24.755Z,11.57
2019-04-16T04:00:44.155Z,10.08
2019-04-16T04:02:44.071Z,12.98
2019-04-16T04:04:45.301Z,12.78
2019-04-16T04:06:46.535Z,10.98
2019-04-16T04:08:48.967Z,11.80
2019-04-16T04:10:50.832Z,15.03
2019-04-16T04:12:52.227Z,11.73
2019-04-16T04:14:54.291Z,10.05
2019-04-16T04:16:56.422Z,11.00
2019-04-16T04:18:57.621Z,12.78
2019-04-16T04:20:58.828Z,12.03
2019-04-16T04:22:59.991Z,10.55
2019-04-16T04:25:04.506Z,12.82
2019-04-16T04:27:04.279Z,12.07
2019-04-16T04:29:06.275Z,11.43
2019-04-16T04:31:07.778Z,16.52
2019-04-16T04:33:10.215Z,9.85
2019-04-16T04:35:11.778Z,10.85
2019-04-16T04:37:13.134Z,13.68
2019-04-16T04:39:15.679Z,13.58
2019-04-16T04:41:19.884Z,11.93
2019-04-16T04:43:20.319Z,13.88
2019-04-16T04:45:21.589Z,11.12
2019-04-16T04:47:22.842Z,10.85
2019-04-16T04:49:23.990Z,11.95
2019-04-16T04:51:25.137Z,11.95
2019-04-16T04:53:26.361Z,12.53
2019-04-16T04:55:27.518Z,9.90
2019-04-16T04:57:31.174Z,17.77
2019-04-16T04:59:36.521Z,11.30
2019-04-16T05:01:35.154Z,11.45
2019-04-16T05:03:44.445Z,13.88
2019-04-16T05:05:53.316Z,17.12
2019-04-16T05:07:59.650Z,13.43
2019-04-16T05:09:57.963Z,10.20
2019-04-16T05:11:59.451Z,11.63
2019-04-16T05:14:00.859Z,11.43
2019-04-16T05:16:02.796Z,12.65
2019-04-16T05:18:05.805Z,12.65
2019-04-16T05:20:07.293Z,13.62
2019-04-16T05:22:08.430Z,10.93
2019-04-16T05:24:09.872Z,12.88
2019-04-16T05:26:11.268Z,9.35
2019-04-16T05:28:13.263Z,10.30
2019-04-16T05:30:20.440Z,11.38
2019-04-16T05:32:17.986Z,10.60
2019-04-16T05:34:19.150Z,12.58
2019-04-16T05:36:21.381Z,12.90
2019-04-16T05:38:24.422Z,12.40
2019-04-16T05:40:28.071Z,14.45
2019-04-16T05:42:29.111Z,10.93
2019-04-16T05:44:33.178Z,10.25
2019-04-16T05:46:33.425Z,12.40
2019-04-16T05:48:34.835Z,10.08
2019-04-16T05:50:35.986Z,11.20
2019-04-16T05:52:37.123Z,13.30
2019-04-16T05:54:55.013Z,21.45
2019-04-16T05:57:13.283Z,11.30
2019-04-16T05:59:14.501Z,12.75
2019-04-16T06:01:29.477Z,12.58
2019-04-16T06:03:30.803Z,12.20
2019-04-16T06:05:32.082Z,13.80
2019-04-16T06:07:37.743Z,11.97
2019-04-16T06:09:36.570Z,13.08
2019-04-16T06:11:37.821Z,12.55
2019-04-16T06:13:49.434Z,15.23
2019-04-16T06:15:56.457Z,14.13
2019-04-16T06:18:08.174Z,11.30
2019-04-16T06:20:23.538Z,13.83
2019-04-16T06:22:32.206Z,13.40
2019-04-16T06:24:41.317Z,12.90
2019-04-16T06:26:47.414Z,12.50
2019-04-16T06:28:55.043Z,11.40
2019-04-16T06:31:10.064Z,11.73
2019-04-16T06:33:14.283Z,12.03
2019-04-16T06:35:43.068Z,13.18
2019-04-16T06:37:39.293Z,11.60
2019-04-16T06:39:42.483Z,13.20
2019-04-16T06:41:48.386Z,12.95
2019-04-16T06:43:50.242Z,13.78
2019-04-16T06:46:01.865Z,12.40
2019-04-16T06:48:04.794Z,16.85
2019-04-16T06:50:32.279Z,14.07
2019-04-16T06:52:29.304Z,14.10
2019-04-16T06:54:38.076Z,13.03
2019-04-16T06:56:58.997Z,13.38
2019-04-16T06:59:02.286Z,14.40
2019-04-16T07:01:07.756Z,15.10
2019-04-16T07:03:16.649Z,13.08
2019-04-16T07:05:19.865Z,13.38
2019-04-16T07:07:40.272Z,11.65
2019-04-16T07:09:45.904Z,9.65
2019-04-16T07:11:54.587Z,10.25
2019-04-16T07:13:52.397Z,13.88
2019-04-16T07:15:56.948Z,14.18
2019-04-16T07:17:56.629Z,16.00
2019-04-16T07:19:57.846Z,11.75
2019-04-16T07:21:59.142Z,12.25
2019-04-16T07:24:00.189Z,11.28
2019-04-16T07:26:03.575Z,11.93
2019-04-16T07:28:06.287Z,11.25
2019-04-16T07:30:12.701Z,11.68
2019-04-16T07:32:16.078Z,13.45
2019-04-16T07:34:35.814Z,12.78
2019-04-16T07:36:47.704Z,11.80
2019-04-16T07:41:17.114Z,11.15
2019-04-16T07:43:31.048Z,16.48
2019-04-16T07:45:47.538Z,10.10
2019-04-16T07:48:06.423Z,15.63
2019-04-16T07:50:10.232Z,12.23
2019-04-16T07:52:13.176Z,14.40
2019-04-16T07:54:34.400Z,14.05
2019-04-16T07:56:36.444Z,12.68
2019-04-16T07:58:37.581Z,14.58
2019-04-16T08:00:41.321Z,13.08
2019-04-16T08:02:41.578Z,11.90
2019-04-16T08:04:42.613Z,14.28
2019-04-16T08:06:46.432Z,9.33
2019-04-16T08:08:46.926Z,14.63
2019-04-16T08:10:47.975Z,11.80
2019-04-16T08:12:51.278Z,14.20
2019-04-16T08:14:52.563Z,12.80
2019-04-16T08:16:53.606Z,11.48
2019-04-16T08:18:54.655Z,12.58
2019-04-16T08:21:02.083Z,14.58
2019-04-16T08:23:00.787Z,17.52
2019-04-16T08:25:04.257Z,16.07
2019-04-16T08:27:05.455Z,15.30
2019-04-16T08:29:06.839Z,11.83
2019-04-16T08:31:12.188Z,12.03
2019-04-16T08:33:12.751Z,13.68
2019-04-16T08:35:14.388Z,15.68
2019-04-16T08:39:16.649Z,22.42
2019-04-16T08:41:21.374Z,13.13
2019-04-16T08:43:20.629Z,15.60
2019-04-16T08:45:21.663Z,13.30
2019-04-16T08:47:22.719Z,14.53
2019-04-16T08:49:23.745Z,15.72
2019-04-16T08:51:30.981Z,15.18
2019-04-16T08:53:27.769Z,16.60
2019-04-16T08:55:29.083Z,16.62
2019-04-16T08:57:32.185Z,12.82
2019-04-16T08:59:33.112Z,13.68
2019-04-16T09:01:34.755Z,13.55
2019-04-16T09:05:41.294Z,12.78
2019-04-16T09:07:39.915Z,14.90
2019-04-16T09:09:42.937Z,13.50
2019-04-16T09:11:44.141Z,13.00
2019-04-16T09:13:49.993Z,14.00
2019-04-16T09:15:51.066Z,13.78
2019-04-16T09:17:54.018Z,15.25
2019-04-16T09:19:57.205Z,13.00
2019-04-16T09:21:58.473Z,13.93
2019-04-16T09:24:16.859Z,13.98
2019-04-16T09:26:28.497Z,15.58
2019-04-16T09:28:37.529Z,13.60
2019-04-16T09:30:40.475Z,14.53
2019-04-16T09:32:49.291Z,11.83
2019-04-16T09:35:10.994Z,14.68
2019-04-16T09:37:12.029Z,13.35
2019-04-16T09:39:29.911Z,13.98
2019-04-16T09:41:32.853Z,12.85
2019-04-16T09:43:41.599Z,13.68
2019-04-16T09:45:42.635Z,15.00
2019-04-16T09:47:43.688Z,15.20
2019-04-16T09:49:44.726Z,15.68
2019-04-16T09:51:45.781Z,14.25
2019-04-16T09:53:47.066Z,15.80
2019-04-16T09:55:50.571Z,14.07
2019-04-16T09:57:51.037Z,15.53
2019-04-16T09:59:54.238Z,15.20
2019-04-16T10:01:57.186Z,13.35
2019-04-16T10:03:59.121Z,14.63
2019-04-16T10:06:00.474Z,15.75
2019-04-16T10:08:01.793Z,15.90
2019-04-16T10:10:03.726Z,18.05
2019-04-16T10:12:07.712Z,17.12
2019-04-16T10:14:07.949Z,16.87
2019-04-16T10:16:09.448Z,15.00
2019-04-16T10:18:10.490Z,13.40
2019-04-16T10:20:11.526Z,14.10
2019-04-16T10:22:12.662Z,13.62
2019-04-16T10:24:15.733Z,14.33
2019-04-16T10:26:17.327Z,16.82
2019-04-16T10:30:23.435Z,19.07
2019-04-16T10:32:25.986Z,19.25
2019-04-16T10:34:27.040Z,16.00
2019-04-16T10:36:28.210Z,15.43
2019-04-16T10:38:33.805Z,18.57
2019-04-16T10:40:36.856Z,17.25
2019-04-16T10:42:56.103Z,18.60
2019-04-16T10:45:04.819Z,17.35
2019-04-16T10:47:16.779Z,14.28
2019-04-16T10:49:27.380Z,17.50
2019-04-16T10:51:41.930Z,14.63
2019-04-16T10:53:45.151Z,20.00
2019-04-16T10:55:57.669Z,16.25
2019-04-16T10:58:00.637Z,15.70
2019-04-16T11:00:06.588Z,15.63
2019-04-16T11:02:28.637Z,15.53
2019-04-16T11:04:33.486Z,15.05
2019-04-16T11:06:36.760Z,15.13
2019-04-16T11:08:37.906Z,16.80
2019-04-16T11:10:39.508Z,15.93
2019-04-16T11:12:40.893Z,11.90
2019-04-16T11:14:42.204Z,14.45
2019-04-16T11:16:45.218Z,17.17
2019-04-16T11:18:46.394Z,17.12
2019-04-16T11:20:47.533Z,15.78
2019-04-16T11:22:48.695Z,17.32
2019-04-16T11:24:49.836Z,15.08
2019-04-16T11:26:50.958Z,15.58
2019-04-16T11:28:52.033Z,16.90
2019-04-16T11:30:55.049Z,14.28
2019-04-16T11:32:56.503Z,17.27
2019-04-16T11:36:59.007Z,17.15
2019-04-16T11:39:00.079Z,17.40
2019-04-16T11:41:01.485Z,14.83
2019-04-16T11:43:03.157Z,16.75
2019-04-16T11:45:05.048Z,17.90
2019-04-16T11:47:06.625Z,17.85
2019-04-16T15:30:34.030Z,20.00
2019-04-16T15:32:43.328Z,19.82
2019-04-16T15:34:47.040Z,21.35
2019-04-16T15:36:54.923Z,23.32
2019-04-16T15:39:02.876Z,21.02
2019-04-16T15:41:13.371Z,20.62
2019-04-16T15:43:35.019Z,17.30
2019-04-16T15:46:12.892Z,19.85
2019-04-16T15:48:28.672Z,20.43
2019-04-16T15:50:43.988Z,18.12
2019-04-16T15:52:47.517Z,18.25
2019-04-16T15:54:51.091Z,21.70
2019-04-16T15:57:11.045Z,20.10
2019-04-16T15:59:23.606Z,20.52
2019-04-16T16:01:43.562Z,22.30
2019-04-16T16:04:04.362Z,21.87
2019-04-16T16:06:11.000Z,19.87
2019-04-16T16:08:29.814Z,19.55
2019-04-16T16:10:32.280Z,17.25
2019-04-16T16:12:33.977Z,21.50
2019-04-16T16:14:38.730Z,18.77
2019-04-16T16:16:41.922Z,17.73
2019-04-16T16:18:42.027Z,21.35
2019-04-16T16:20:43.595Z,23.85
2019-04-16T16:22:45.870Z,19.90
2019-04-16T16:24:47.409Z,20.60
2019-04-16T16:26:48.681Z,23.22
2019-04-16T16:28:49.946Z,20.55
2019-04-16T16:30:51.333Z,22.48
2019-04-16T16:32:52.660Z,20.68
2019-04-16T16:34:53.925Z,20.92
2019-04-16T16:36:55.201Z,19.80
2019-04-16T16:38:56.453Z,21.70
2019-04-16T16:40:57.742Z,22.58
2019-04-16T16:42:59.017Z,20.32
2019-04-16T16:45:01.608Z,19.50
2019-04-16T16:47:05.457Z,18.77
2019-04-16T16:49:06.718Z,21.82
2019-04-16T16:51:08.152Z,20.65
2019-04-16T16:53:20.978Z,20.05
2019-04-16T16:55:32.814Z,18.60
2019-04-16T16:57:36.034Z,20.92
2019-04-16T16:59:44.778Z,18.62
2019-04-16T17:01:47.956Z,19.75
2019-04-16T17:03:56.894Z,24.43
2019-04-16T17:05:59.439Z,22.52
2019-04-16T17:08:00.886Z,22.93
2019-04-16T17:10:05.062Z,26.60
2019-04-16T17:12:06.336Z,19.90
2019-04-16T17:14:07.799Z,21.30
2019-04-16T17:16:13.314Z,23.95
2019-04-16T17:18:12.339Z,23.75
2019-04-16T17:20:13.618Z,21.65
2019-04-16T17:22:17.490Z,24.98
2019-04-16T17:24:18.854Z,23.55
2019-04-16T17:26:20.246Z,25.23
2019-04-16T17:28:21.617Z,20.37
2019-04-16T17:30:22.894Z,24.25
2019-04-16T17:32:24.332Z,19.90
2019-04-16T17:34:25.672Z,25.50
2019-04-16T17:36:27.369Z,26.50
2019-04-16T17:38:28.709Z,23.18
2019-04-16T17:40:31.983Z,23.77
2019-04-16T17:42:37.716Z,22.40
2019-04-16T17:44:49.098Z,22.90
2019-04-16T17:46:55.802Z,20.55
2019-04-16T17:49:06.407Z,21.65
2019-04-16T17:51:15.481Z,24.10
2019-04-16T17:53:18.658Z,23.70
2019-04-16T17:55:24.387Z,21.62
2019-04-16T17:57:36.799Z,22.02
2019-04-16T17:59:40.097Z,22.40
2019-04-16T18:01:52.066Z,20.40
2019-04-16T18:03:55.286Z,23.67
2019-04-16T18:06:07.367Z,24.82
2019-04-16T18:08:29.335Z,24.07
2019-04-16T18:12:55.149Z,21.15
2019-04-16T18:15:13.576Z,20.57
2019-04-16T18:17:27.665Z,23.38
2019-04-16T18:19:47.430Z,21.65
2019-04-16T18:21:53.699Z,27.25
2019-04-16T18:23:56.917Z,20.55
2019-04-16T18:26:17.113Z,22.93
2019-04-16T18:28:20.579Z,24.00
2019-04-16T18:30:38.854Z,23.75
2019-04-16T18:32:59.045Z,23.22
2019-04-16T18:35:08.466Z,20.88
2019-04-16T18:37:30.033Z,20.97
2019-04-16T18:39:37.219Z,21.90
2019-04-16T18:41:41.430Z,22.90
2019-04-16T18:43:47.553Z,24.37
2019-04-16T18:45:52.295Z,24.70
2019-04-16T18:48:04.979Z,20.20
2019-04-16T18:50:04.890Z,22.00
2019-04-16T18:52:07.018Z,23.30
2019-04-16T18:54:08.662Z,22.20
2019-04-16T18:56:10.097Z,21.97
2019-04-16T18:58:11.373Z,22.48
2019-04-16T19:00:14.741Z,22.67
2019-04-16T19:02:16.020Z,22.07
2019-04-16T19:04:17.338Z,21.23
2019-04-16T19:06:26.702Z,24.05
2019-04-16T19:08:40.786Z,26.37
2019-04-16T19:10:31.233Z,22.55
2019-04-16T19:12:32.501Z,22.70
2019-04-16T19:14:36.559Z,23.32
2019-04-16T19:16:38.541Z,22.70
2019-04-16T19:18:39.813Z,24.00
2019-04-16T19:20:41.190Z,20.62
2019-04-16T19:22:42.485Z,26.95
2019-04-16T19:24:44.110Z,25.85
2019-04-16T19:26:45.899Z,20.30
2019-04-16T19:28:47.479Z,22.40
2019-04-16T19:32:50.565Z,24.30
2019-04-16T19:36:55.995Z,21.82
2019-04-16T19:38:59.409Z,23.83
2019-04-16T19:41:01.293Z,21.65
2019-04-16T19:43:03.612Z,22.25
2019-04-16T19:45:08.954Z,26.77
2019-04-16T19:47:09.775Z,22.32
2019-04-16T19:51:12.915Z,24.52
2019-04-16T19:55:17.155Z,23.38
2019-04-16T19:57:18.575Z,25.57
2019-04-16T19:59:19.849Z,25.05
2019-04-16T20:01:21.102Z,21.60
2019-04-16T20:03:22.599Z,22.87
2019-04-16T20:05:23.978Z,25.57
2019-04-16T20:07:25.245Z,22.17
2019-04-16T20:09:26.517Z,21.80
2019-04-16T20:11:27.783Z,22.15
2019-04-16T20:13:29.827Z,20.48
2019-04-16T20:15:31.313Z,20.90
2019-04-16T20:17:32.854Z,24.75
2019-04-16T20:19:36.282Z,24.18
2019-04-16T20:21:38.169Z,22.30
2019-04-16T20:23:39.592Z,24.00
2019-04-16T20:25:40.858Z,27.52
2019-04-16T20:27:42.308Z,23.05
2019-04-16T20:29:43.578Z,20.23
2019-04-16T20:31:45.104Z,22.15
2019-04-16T20:33:46.386Z,19.50
2019-04-16T20:35:50.450Z,23.87
2019-04-16T20:37:54.265Z,25.30
2019-04-16T20:39:55.952Z,22.77
2019-04-16T20:41:59.416Z,23.47
2019-04-16T20:44:00.397Z,22.07
2019-04-16T20:46:01.888Z,22.30
2019-04-16T20:48:03.474Z,20.52
2019-04-16T20:50:05.882Z,21.70
2019-04-16T20:52:07.157Z,23.77
2019-04-16T20:54:12.225Z,23.80
2019-04-16T20:56:13.643Z,25.05
2019-04-16T20:58:15.058Z,22.37
2019-04-16T21:00:22.489Z,24.55
2019-04-16T21:02:24.361Z,22.60
2019-04-16T21:04:25.893Z,22.55
2019-04-16T21:06:27.448Z,23.12
2019-04-16T21:10:35.447Z,21.45
2019-04-16T21:12:33.229Z,20.48
2019-04-16T21:14:34.838Z,24.98
2019-04-16T21:16:36.194Z,22.98
2019-04-16T21:18:37.528Z,23.47
2019-04-16T21:20:39.040Z,21.00
2019-04-16T21:22:40.406Z,22.52
2019-04-16T21:24:42.820Z,21.85
2019-04-16T21:26:44.078Z,22.15
2019-04-16T21:28:47.258Z,23.42
2019-04-16T21:30:50.429Z,26.25
2019-04-16T21:33:02.579Z,24.80
2019-04-16T21:35:09.642Z,22.27
2019-04-16T21:37:29.282Z,24.18
2019-04-16T21:39:32.458Z,20.10
2019-04-16T21:41:33.725Z,21.55
2019-04-16T21:43:35.691Z,21.30
2019-04-16T21:45:38.428Z,21.50
2019-04-16T21:47:39.701Z,20.90
2019-04-16T21:49:45.055Z,19.52
2019-04-16T21:52:02.594Z,24.12
2019-04-16T21:54:03.905Z,27.13
2019-04-16T21:56:08.196Z,23.77
2019-04-16T21:58:08.675Z,27.98
2019-04-16T22:02:17.345Z,24.18
2019-04-16T22:04:18.730Z,24.90
2019-04-16T22:06:20.991Z,26.93
2019-04-16T22:08:22.486Z,20.20
2019-04-16T22:10:23.785Z,21.80
2019-04-16T22:12:25.047Z,27.00
2019-04-16T22:14:26.576Z,21.82
2019-04-16T22:16:29.876Z,19.27
2019-04-16T22:18:31.265Z,19.62
2019-04-16T22:20:35.757Z,24.30
2019-04-16T22:22:35.734Z,23.35
2019-04-16T22:24:37.009Z,25.05
2019-04-16T22:26:38.550Z,26.70
2019-04-16T22:28:44.164Z,28.83
2019-04-16T22:30:43.322Z,23.38
2019-04-16T22:32:44.581Z,26.27
2019-04-16T22:34:45.921Z,29.72
2019-04-16T22:36:47.782Z,28.67
2019-04-16T22:38:50.969Z,25.43
2019-04-16T22:40:54.965Z,25.15
2019-04-16T22:43:07.052Z,23.95
2019-04-16T22:45:22.215Z,26.82
2019-04-16T22:47:28.416Z,30.37
2019-04-16T22:49:30.026Z,22.60
2019-04-16T22:51:31.664Z,23.52
2019-04-16T22:55:34.656Z,22.13
2019-04-16T22:57:36.329Z,27.95
2019-04-16T23:01:44.989Z,25.12
2019-04-16T23:04:14.873Z,23.47
2019-04-16T23:06:16.503Z,24.72
2019-04-16T23:08:19.181Z,25.65
2019-04-16T23:10:21.835Z,27.73
2019-04-16T23:12:27.232Z,25.75
2019-04-16T23:14:27.817Z,25.52
2019-04-16T23:16:29.254Z,24.95
2019-04-16T23:18:30.533Z,25.50
2019-04-16T23:20:36.114Z,27.55
2019-04-16T23:22:35.466Z,28.98
2019-04-16T23:24:36.746Z,24.47
2019-04-16T23:26:38.026Z,24.18
2019-04-16T23:28:39.690Z,23.02
2019-04-16T23:30:42.510Z,24.00
2019-04-16T23:32:44.035Z,20.97
2019-04-16T23:34:45.457Z,24.98
2019-04-16T23:36:48.699Z,27.67
2019-04-16T23:38:49.974Z,20.50
2019-04-16T23:40:51.247Z,21.80
2019-04-16T23:43:11.528Z,29.72
2019-04-16T23:45:14.713Z,24.50
2019-04-16T23:47:17.898Z,23.95
2019-04-16T23:49:33.151Z,27.00
2019-04-16T23:51:36.329Z,24.63
2019-04-16T23:53:51.481Z,22.60
2019-04-16T23:56:00.529Z,24.85
2019-04-16T23:58:09.352Z,26.20
